Background

Flight PUG138

Flight PUG138

  • Submitted By: Daniel Hammond
  • Departure Airport: Larnaca (LCLK)
  • Arrival Airport: Rome (LIRF)
  • Aircraft: B737-900 (VH-RNC)
  • Flight Time: 02.54
  • Date Submitted: 15/11/2015
  • Route: LUBE1C LUBES UM978 AMONO UL995 KEA UL52 KOR UL53 KRK UL995 TIGRA UT75 EKTOL UL995 TEA UZ803 LAT LAT4B
  • Status: Accepted
Flight Details
Gross Revenue:
(181 load / $ 2, 500.00 per unit
$ 452, 500.00
Fuel Cost:
(18866 fuel used @ 5.1 / unit)
$ 96, 216.60


Additional Log Information:

View Log

smartCARS version 2.1.17.0, 2015/11/15 UTC
[06:24:56] Preflight started, flying on IVAO
[06:24:56] Flying Boeing 737-900NGX RallyeAir Australia FSS VH-RNC
[06:25:32] Flaps set to position 8
[06:25:34] Flaps set to position 0
[06:26:07] Flaps set to position 8
[06:26:09] Flaps set to position 0
[06:33:35] Pushing back with 27165 lb of fuel
[06:34:26] Engine 2 is on
[06:35:24] Engine 1 is on
[06:36:15] Flaps set to position 1
[06:36:23] Flaps set to position 2
[06:36:27] Flaps set to position 3
[06:38:34] Taxiing to runway
[06:43:51] Taking off
[06:44:20] Climbing, pitch: 10, roll: level, 169 kts
[06:44:25] Gear lever raised at 159 ft at 170 kts
[06:44:26] Flaps set to position 8 at 239 ft at 168 kts
[06:44:28] Flaps set to position 3 at 394 ft at 166 kts
[06:44:38] Flaps set to position 4 at 987 ft at 161 kts
[06:44:40] Flaps set to position 3 at 1114 ft at 163 kts
[06:44:45] Flaps set to position 8 at 1307 ft at 168 kts
[06:44:47] Flaps set to position 3 at 1380 ft at 171 kts
[06:44:53] Flaps set to position 8 at 1612 ft at 178 kts
[06:44:55] Flaps set to position 3 at 1711 ft at 179 kts
[06:45:04] Flaps set to position 4 at 2006 ft at 186 kts
[06:45:06] Flaps set to position 3 at 2067 ft at 189 kts
[06:45:25] Flaps set to position 4 at 2464 ft at 222 kts
[06:45:27] Flaps set to position 3 at 2511 ft at 225 kts
[06:45:30] Flaps set to position 2 at 2581 ft at 229 kts
[06:45:33] Flaps set to position 1 at 2679 ft at 232 kts
[06:45:36] Flaps set to position 4 at 2825 ft at 233 kts
[06:45:38] Flaps set to position 1 at 2935 ft at 233 kts
[06:45:41] Flaps set to position 0 at 3093 ft at 234 kts
[06:45:46] Flaps set to position 4 at 3359 ft at 233 kts
[06:45:48] Flaps set to position 0 at 3462 ft at 233 kts
[07:04:57] Cruising at 34000ft, pitch: 2, 415 kts
[07:51:06] Flaps set to position 4 at 34112 ft at 288 kts
[07:51:08] Flaps set to position 0 at 34112 ft at 288 kts
[07:52:17] Flaps set to position 8 at 34113 ft at 288 kts
[07:52:18] Flaps set to position 0 at 34113 ft at 288 kts
[07:52:20] Flaps set to position 4 at 34113 ft at 288 kts
[07:52:21] Flaps set to position 0 at 34113 ft at 288 kts
[07:52:23] Flaps set to position 8 at 34113 ft at 288 kts
[07:52:24] Flaps set to position 0 at 34113 ft at 288 kts
[07:52:33] Flaps set to position 4 at 34113 ft at 288 kts
[07:52:35] Flaps set to position 0 at 34114 ft at 288 kts
[07:52:41] Flaps set to position 8 at 34114 ft at 288 kts
[07:52:43] Flaps set to position 0 at 34114 ft at 288 kts
[07:57:53] Flaps set to position 8 at 34166 ft at 288 kts
[07:57:55] Flaps set to position 0 at 34167 ft at 288 kts
[07:58:25] Flaps set to position 4 at 34168 ft at 288 kts
[07:58:27] Flaps set to position 0 at 34169 ft at 288 kts
[07:58:49] Flaps set to position 4 at 34169 ft at 288 kts
[07:58:51] Flaps set to position 0 at 34169 ft at 288 kts
[07:58:52] Flaps set to position 8 at 34169 ft at 288 kts
[07:58:53] Flaps set to position 0 at 34169 ft at 288 kts
[07:58:55] Flaps set to position 4 at 34169 ft at 288 kts
[07:58:56] Flaps set to position 0 at 34169 ft at 288 kts
[07:59:00] Flaps set to position 4 at 34169 ft at 288 kts
[07:59:02] Flaps set to position 0 at 34169 ft at 288 kts
[07:59:16] Flaps set to position 4 at 34170 ft at 288 kts
[07:59:18] Flaps set to position 0 at 34169 ft at 288 kts
[07:59:39] Flaps set to position 8 at 34170 ft at 288 kts
[07:59:41] Flaps set to position 0 at 34170 ft at 288 kts
[07:59:49] Flaps set to position 8 at 34170 ft at 288 kts
[07:59:51] Flaps set to position 0 at 34169 ft at 288 kts
[08:00:10] Flaps set to position 8 at 34170 ft at 288 kts
[08:00:12] Flaps set to position 0 at 34170 ft at 288 kts
[08:05:20] Flaps set to position 4 at 34167 ft at 288 kts
[08:05:23] Flaps set to position 0 at 34167 ft at 288 kts
[08:08:10] Flaps set to position 8 at 34168 ft at 288 kts
[08:08:12] Flaps set to position 0 at 34167 ft at 288 kts
[08:08:13] Flaps set to position 8 at 34167 ft at 288 kts
[08:08:14] Flaps set to position 0 at 34166 ft at 288 kts
[08:08:15] Flaps set to position 8 at 34166 ft at 288 kts
[08:08:15] Flaps set to position 4 at 34165 ft at 288 kts
[08:08:17] Flaps set to position 0 at 34165 ft at 288 kts
[08:08:20] Flaps set to position 4 at 34165 ft at 288 kts
[08:08:20] Flaps set to position 0 at 34165 ft at 288 kts
[08:08:22] Flaps set to position 4 at 34164 ft at 288 kts
[08:08:24] Flaps set to position 0 at 34164 ft at 288 kts
[08:08:27] Flaps set to position 4 at 34164 ft at 288 kts
[08:08:28] Flaps set to position 0 at 34164 ft at 288 kts
[08:08:29] Flaps set to position 4 at 34164 ft at 288 kts
[08:08:29] Flaps set to position 8 at 34164 ft at 288 kts
[08:08:31] Flaps set to position 0 at 34163 ft at 287 kts
[08:08:36] Flaps set to position 8 at 34163 ft at 287 kts
[08:08:37] Flaps set to position 0 at 34163 ft at 287 kts
[08:08:40] Flaps set to position 4 at 34163 ft at 287 kts
[08:08:41] Flaps set to position 8 at 34163 ft at 288 kts
[08:08:42] Flaps set to position 0 at 34163 ft at 288 kts
[08:08:51] Flaps set to position 8 at 34163 ft at 288 kts
[08:08:53] Flaps set to position 0 at 34163 ft at 288 kts
[08:09:00] Flaps set to position 4 at 34163 ft at 288 kts
[08:09:02] Flaps set to position 0 at 34162 ft at 288 kts
[08:09:09] Flaps set to position 4 at 34162 ft at 288 kts
[08:09:10] Flaps set to position 0 at 34162 ft at 288 kts
[08:09:15] Flaps set to position 4 at 34162 ft at 288 kts
[08:09:17] Flaps set to position 0 at 34161 ft at 287 kts
[08:09:22] Flaps set to position 4 at 34161 ft at 288 kts
[08:09:24] Flaps set to position 0 at 34161 ft at 288 kts
[08:09:53] Flaps set to position 8 at 34160 ft at 288 kts
[08:09:55] Flaps set to position 0 at 34160 ft at 288 kts
[08:10:29] Flaps set to position 8 at 34159 ft at 288 kts
[08:10:31] Flaps set to position 0 at 34160 ft at 288 kts
[09:02:12] Flaps set to position 4 at 32843 ft at 288 kts
[09:02:14] Flaps set to position 0 at 32788 ft at 288 kts
[09:03:15] Flaps set to position 4 at 34020 ft at 288 kts
[09:03:19] Flaps set to position 0 at 33996 ft at 288 kts
[09:03:34] Flaps set to position 4 at 34063 ft at 288 kts
[09:03:37] Flaps set to position 0 at 34062 ft at 288 kts
[09:03:54] Flaps set to position 4 at 33736 ft at 288 kts
[09:03:56] Flaps set to position 0 at 33641 ft at 288 kts
[09:04:05] Flaps set to position 8 at 33923 ft at 288 kts
[09:04:07] Flaps set to position 0 at 33942 ft at 288 kts
[09:07:12] Flaps set to position 4 at 34212 ft at 288 kts
[09:07:15] Flaps set to position 0 at 34209 ft at 288 kts
[09:08:57] Flaps set to position 8 at 33920 ft at 288 kts
[09:08:59] Flaps set to position 0 at 33848 ft at 288 kts
[09:10:29] Descending
[09:14:53] Flaps set to position 8 at 26305 ft at 250 kts
[09:14:55] Flaps set to position 0 at 26265 ft at 249 kts
[09:20:04] Sim paused
[09:20:05] Sim unpaused
[09:22:24] Sim paused
[09:22:25] Sim unpaused
[09:28:56] Approaching
[09:32:01] Flaps set to position 8 at 3514 ft at 243 kts
[09:32:03] Flaps set to position 0 at 3499 ft at 242 kts
[09:32:30] Flaps set to position 1 at 3199 ft at 230 kts
[09:32:38] Flaps set to position 2 at 3270 ft at 225 kts
[09:32:43] Flaps set to position 3 at 3184 ft at 222 kts
[09:33:55] Flaps set to position 4 at 2633 ft at 174 kts
[09:33:57] Flaps set to position 3 at 2634 ft at 174 kts
[09:34:12] Flaps set to position 4 at 2532 ft at 172 kts
[09:34:12] Final approach, 180 kts
[09:34:14] Flaps set to position 3 at 2590 ft at 172 kts
[09:34:34] Sim paused
[09:34:35] Sim unpaused
[09:35:53] Flaps set to position 8 at 1131 ft at 176 kts
[09:35:55] Flaps set to position 3 at 1097 ft at 172 kts
[09:36:00] Gear lever lowered at 1011 ft at 172 kts
[09:36:00] Flaps set to position 4 at 1000 ft at 174 kts
[09:36:07] Flaps set to position 8 at 906 ft at 170 kts
[09:36:07] Flaps set to position 5 at 901 ft at 170 kts
[09:36:14] Flaps set to position 4 at 811 ft at 165 kts
[09:36:14] Sim paused
[09:36:15] Sim unpaused
[09:36:15] Flaps set to position 8 at 799 ft at 166 kts
[09:36:18] Flaps set to position 4 at 770 ft at 163 kts
[09:36:19] Flaps set to position 7 at 751 ft at 161 kts
[09:36:23] Flaps set to position 8 at 697 ft at 161 kts
[09:36:25] Flaps set to position 7 at 655 ft at 158 kts
[09:36:39] Flaps set to position 4 at 414 ft at 155 kts
[09:36:41] Flaps set to position 7 at 381 ft at 154 kts
[09:36:47] Flaps set to position 8 at 325 ft at 155 kts
[09:36:49] Flaps set to position 7 at 304 ft at 154 kts
[09:37:14] Touched down at -139 fpm, gear lever: down, pitch: 1, roll: level, 149 kts
[09:38:32] Landed in 7542 ft, fuel: 8357 lb, weight: 139797 lb
[09:38:32] Taxiing to gate
[09:38:39] Flaps set to position 6
[09:38:44] Flaps set to position 5
[09:38:46] Flaps set to position 4
[09:38:50] Flaps set to position 3
[09:38:54] Flaps set to position 2
[09:38:57] Flaps set to position 1
[09:39:05] Flaps set to position 0
[09:39:19] The flight may now be ended
[09:39:19] Arrived, flight duration: 02:54
[09:40:28] Engine 2 is off
[09:40:28] Engine 1 is off

Route Map